sensor_id;sensor_type;location;lat;lon;timestamp;P1;durP1;ratioP1;P2;durP2;ratioP2
315;SDS011;14128;48.686;9.738;2022-11-18T00:00:51;5.37;;;3.17;;
315;SDS011;14128;48.686;9.738;2022-11-18T00:03:18;3.40;;;1.73;;
315;SDS011;14128;48.686;9.738;2022-11-18T00:05:51;3.30;;;2.53;;
315;SDS011;14128;48.686;9.738;2022-11-18T00:08:18;2.40;;;2.00;;
315;SDS011;14128;48.686;9.738;2022-11-18T00:10:45;3.30;;;2.37;;
315;SDS011;14128;48.686;9.738;2022-11-18T00:13:13;1.90;;;1.80;;
315;SDS011;14128;48.686;9.738;2022-11-18T00:15:59;3.00;;;2.00;;
315;SDS011;14128;48.686;9.738;2022-11-18T00:18:26;2.80;;;2.20;;
315;SDS011;14128;48.686;9.738;2022-11-18T00:20:53;3.03;;;1.90;;
315;SDS011;14128;48.686;9.738;2022-11-18T00:23:19;3.10;;;2.10;;
315;SDS011;14128;48.686;9.738;2022-11-18T00:25:46;2.13;;;1.90;;
315;SDS011;14128;48.686;9.738;2022-11-18T00:28:14;1.93;;;1.73;;
315;SDS011;14128;48.686;9.738;2022-11-18T00:30:41;2.37;;;2.00;;
315;SDS011;14128;48.686;9.738;2022-11-18T00:33:08;4.90;;;2.30;;
315;SDS011;14128;48.686;9.738;2022-11-18T00:35:35;3.97;;;2.00;;
315;SDS011;14128;48.686;9.738;2022-11-18T00:38:01;2.50;;;1.87;;
315;SDS011;14128;48.686;9.738;2022-11-18T00:40:28;2.70;;;1.60;;
315;SDS011;14128;48.686;9.738;2022-11-18T00:42:55;3.13;;;2.33;;
315;SDS011;14128;48.686;9.738;2022-11-18T00:45:22;1.50;;;1.40;;
315;SDS011;14128;48.686;9.738;2022-11-18T00:47:49;1.93;;;1.20;;
315;SDS011;14128;48.686;9.738;2022-11-18T00:50:16;1.40;;;1.27;;
315;SDS011;14128;48.686;9.738;2022-11-18T00:52:42;2.53;;;1.37;;
315;SDS011;14128;48.686;9.738;2022-11-18T00:55:09;1.00;;;0.93;;
315;SDS011;14128;48.686;9.738;2022-11-18T00:57:36;2.03;;;1.00;;
315;SDS011;14128;48.686;9.738;2022-11-18T01:00:03;1.63;;;1.00;;
315;SDS011;14128;48.686;9.738;2022-11-18T01:02:32;2.60;;;1.40;;
315;SDS011;14128;48.686;9.738;2022-11-18T01:04:58;2.03;;;0.90;;
315;SDS011;14128;48.686;9.738;2022-11-18T01:07:25;1.57;;;1.07;;
315;SDS011;14128;48.686;9.738;2022-11-18T01:09:52;1.67;;;0.90;;
315;SDS011;14128;48.686;9.738;2022-11-18T01:12:19;1.57;;;1.47;;
315;SDS011;14128;48.686;9.738;2022-11-18T01:15:18;1.50;;;1.30;;
315;SDS011;14128;48.686;9.738;2022-11-18T01:17:46;2.23;;;1.30;;
315;SDS011;14128;48.686;9.738;2022-11-18T01:20:13;1.40;;;1.10;;
315;SDS011;14128;48.686;9.738;2022-11-18T01:22:40;2.33;;;0.80;;
315;SDS011;14128;48.686;9.738;2022-11-18T01:25:07;2.53;;;1.13;;
315;SDS011;14128;48.686;9.738;2022-11-18T01:27:34;1.60;;;1.23;;
315;SDS011;14128;48.686;9.738;2022-11-18T01:30:01;2.27;;;1.30;;
315;SDS011;14128;48.686;9.738;2022-11-18T01:32:28;1.93;;;0.93;;
315;SDS011;14128;48.686;9.738;2022-11-18T01:34:56;2.70;;;1.53;;
315;SDS011;14128;48.686;9.738;2022-11-18T01:37:23;1.73;;;1.43;;
315;SDS011;14128;48.686;9.738;2022-11-18T01:39:50;2.17;;;1.30;;
315;SDS011;14128;48.686;9.738;2022-11-18T01:42:16;1.53;;;1.20;;
315;SDS011;14128;48.686;9.738;2022-11-18T01:47:46;1.90;;;1.00;;
315;SDS011;14128;48.686;9.738;2022-11-18T01:50:17;1.70;;;1.33;;
315;SDS011;14128;48.686;9.738;2022-11-18T01:52:46;5.03;;;1.20;;
315;SDS011;14128;48.686;9.738;2022-11-18T01:55:16;2.43;;;1.40;;
315;SDS011;14128;48.686;9.738;2022-11-18T01:57:46;3.30;;;1.90;;
315;SDS011;14128;48.686;9.738;2022-11-18T02:00:15;1.30;;;1.10;;
315;SDS011;14128;48.686;9.738;2022-11-18T02:02:42;1.53;;;1.20;;
315;SDS011;14128;48.686;9.738;2022-11-18T02:05:09;2.77;;;1.00;;
315;SDS011;14128;48.686;9.738;2022-11-18T02:07:39;2.13;;;1.30;;
315;SDS011;14128;48.686;9.738;2022-11-18T02:10:07;3.03;;;1.50;;
315;SDS011;14128;48.686;9.738;2022-11-18T02:12:41;2.00;;;1.50;;
315;SDS011;14128;48.686;9.738;2022-11-18T02:15:08;3.13;;;1.77;;
315;SDS011;14128;48.686;9.738;2022-11-18T02:17:38;2.50;;;1.43;;
315;SDS011;14128;48.686;9.738;2022-11-18T02:20:17;1.87;;;1.57;;
315;SDS011;14128;48.686;9.738;2022-11-18T02:29:21;3.13;;;2.93;;
315;SDS011;14128;48.686;9.738;2022-11-18T02:31:52;3.67;;;2.73;;
315;SDS011;14128;48.686;9.738;2022-11-18T02:34:26;2.43;;;1.77;;
315;SDS011;14128;48.686;9.738;2022-11-18T02:37:04;2.37;;;1.73;;
315;SDS011;14128;48.686;9.738;2022-11-18T02:39:35;2.63;;;1.83;;
315;SDS011;14128;48.686;9.738;2022-11-18T02:42:09;2.53;;;1.40;;
315;SDS011;14128;48.686;9.738;2022-11-18T02:44:41;2.20;;;1.30;;
315;SDS011;14128;48.686;9.738;2022-11-18T02:47:14;2.40;;;1.00;;
315;SDS011;14128;48.686;9.738;2022-11-18T02:49:42;1.23;;;0.90;;
315;SDS011;14128;48.686;9.738;2022-11-18T02:52:13;1.93;;;1.13;;
315;SDS011;14128;48.686;9.738;2022-11-18T02:54:45;4.63;;;0.97;;
315;SDS011;14128;48.686;9.738;2022-11-18T02:57:14;1.73;;;1.50;;
315;SDS011;14128;48.686;9.738;2022-11-18T02:59:42;6.83;;;4.13;;
315;SDS011;14128;48.686;9.738;2022-11-18T03:02:11;9.37;;;6.97;;
315;SDS011;14128;48.686;9.738;2022-11-18T03:04:41;9.10;;;6.40;;
315;SDS011;14128;48.686;9.738;2022-11-18T03:07:11;6.70;;;4.20;;
315;SDS011;14128;48.686;9.738;2022-11-18T03:09:45;5.37;;;4.70;;
315;SDS011;14128;48.686;9.738;2022-11-18T03:12:16;5.77;;;4.73;;
315;SDS011;14128;48.686;9.738;2022-11-18T03:14:50;5.83;;;3.20;;
315;SDS011;14128;48.686;9.738;2022-11-18T03:17:24;8.20;;;3.80;;
315;SDS011;14128;48.686;9.738;2022-11-18T03:20:06;2.60;;;2.40;;
315;SDS011;14128;48.686;9.738;2022-11-18T03:22:41;3.67;;;2.70;;
315;SDS011;14128;48.686;9.738;2022-11-18T03:25:14;2.77;;;2.60;;
315;SDS011;14128;48.686;9.738;2022-11-18T03:27:48;3.60;;;3.17;;
315;SDS011;14128;48.686;9.738;2022-11-18T03:30:21;4.83;;;3.10;;
315;SDS011;14128;48.686;9.738;2022-11-18T03:32:50;3.53;;;2.83;;
315;SDS011;14128;48.686;9.738;2022-11-18T03:35:25;3.27;;;2.50;;
315;SDS011;14128;48.686;9.738;2022-11-18T03:37:56;3.43;;;2.77;;
315;SDS011;14128;48.686;9.738;2022-11-18T03:40:29;2.73;;;2.53;;
315;SDS011;14128;48.686;9.738;2022-11-18T03:42:58;3.10;;;2.10;;
315;SDS011;14128;48.686;9.738;2022-11-18T03:45:32;4.03;;;2.43;;
315;SDS011;14128;48.686;9.738;2022-11-18T03:48:03;2.90;;;2.73;;
315;SDS011;14128;48.686;9.738;2022-11-18T03:50:35;4.10;;;3.57;;
315;SDS011;14128;48.686;9.738;2022-11-18T03:53:06;4.60;;;4.30;;
315;SDS011;14128;48.686;9.738;2022-11-18T03:55:35;7.50;;;5.30;;
315;SDS011;14128;48.686;9.738;2022-11-18T03:58:06;7.27;;;5.20;;
315;SDS011;14128;48.686;9.738;2022-11-18T04:00:39;7.50;;;5.60;;
315;SDS011;14128;48.686;9.738;2022-11-18T04:03:09;5.90;;;5.67;;
315;SDS011;14128;48.686;9.738;2022-11-18T04:05:38;6.83;;;6.43;;
315;SDS011;14128;48.686;9.738;2022-11-18T04:08:07;7.70;;;5.47;;
315;SDS011;14128;48.686;9.738;2022-11-18T04:10:38;5.10;;;4.53;;
315;SDS011;14128;48.686;9.738;2022-11-18T04:13:09;5.77;;;5.00;;
315;SDS011;14128;48.686;9.738;2022-11-18T04:15:41;6.20;;;4.50;;
315;SDS011;14128;48.686;9.738;2022-11-18T04:18:08;4.90;;;3.70;;
315;SDS011;14128;48.686;9.738;2022-11-18T04:20:36;4.53;;;3.83;;
315;SDS011;14128;48.686;9.738;2022-11-18T04:23:03;5.20;;;4.03;;
315;SDS011;14128;48.686;9.738;2022-11-18T04:25:30;2.70;;;2.57;;
315;SDS011;14128;48.686;9.738;2022-11-18T04:27:57;2.90;;;2.60;;
315;SDS011;14128;48.686;9.738;2022-11-18T04:30:24;3.03;;;2.27;;
315;SDS011;14128;48.686;9.738;2022-11-18T04:32:52;2.73;;;1.83;;
315;SDS011;14128;48.686;9.738;2022-11-18T04:35:19;3.67;;;1.97;;
315;SDS011;14128;48.686;9.738;2022-11-18T04:37:45;4.67;;;4.10;;
315;SDS011;14128;48.686;9.738;2022-11-18T04:40:12;1.67;;;1.50;;
315;SDS011;14128;48.686;9.738;2022-11-18T04:42:39;2.27;;;2.00;;
315;SDS011;14128;48.686;9.738;2022-11-18T04:45:06;2.30;;;2.10;;
315;SDS011;14128;48.686;9.738;2022-11-18T04:47:34;1.50;;;1.50;;
315;SDS011;14128;48.686;9.738;2022-11-18T04:50:02;6.63;;;2.50;;
315;SDS011;14128;48.686;9.738;2022-11-18T04:52:30;3.60;;;1.47;;
315;SDS011;14128;48.686;9.738;2022-11-18T04:54:56;2.90;;;2.13;;
315;SDS011;14128;48.686;9.738;2022-11-18T04:57:23;2.13;;;1.70;;
315;SDS011;14128;48.686;9.738;2022-11-18T04:59:50;1.33;;;1.23;;
315;SDS011;14128;48.686;9.738;2022-11-18T05:02:17;1.93;;;1.83;;
315;SDS011;14128;48.686;9.738;2022-11-18T05:04:43;3.20;;;2.00;;
315;SDS011;14128;48.686;9.738;2022-11-18T05:07:13;3.13;;;2.20;;
315;SDS011;14128;48.686;9.738;2022-11-18T05:09:41;4.47;;;1.63;;
315;SDS011;14128;48.686;9.738;2022-11-18T05:12:09;4.30;;;2.60;;
315;SDS011;14128;48.686;9.738;2022-11-18T05:14:55;3.43;;;2.33;;
315;SDS011;14128;48.686;9.738;2022-11-18T05:17:22;2.20;;;1.60;;
315;SDS011;14128;48.686;9.738;2022-11-18T05:19:48;7.73;;;2.10;;
315;SDS011;14128;48.686;9.738;2022-11-18T05:22:17;2.20;;;2.03;;
315;SDS011;14128;48.686;9.738;2022-11-18T05:24:43;3.03;;;2.83;;
315;SDS011;14128;48.686;9.738;2022-11-18T05:27:10;2.67;;;2.53;;
315;SDS011;14128;48.686;9.738;2022-11-18T05:29:38;2.07;;;1.93;;
315;SDS011;14128;48.686;9.738;2022-11-18T05:32:04;3.27;;;2.30;;
315;SDS011;14128;48.686;9.738;2022-11-18T05:34:31;21.87;;;3.40;;
315;SDS011;14128;48.686;9.738;2022-11-18T05:36:58;4.00;;;2.60;;
315;SDS011;14128;48.686;9.738;2022-11-18T05:39:26;2.47;;;1.93;;
315;SDS011;14128;48.686;9.738;2022-11-18T05:41:53;9.37;;;2.77;;
315;SDS011;14128;48.686;9.738;2022-11-18T05:44:37;4.97;;;1.63;;
315;SDS011;14128;48.686;9.738;2022-11-18T05:47:04;3.70;;;1.60;;
315;SDS011;14128;48.686;9.738;2022-11-18T05:49:31;2.50;;;1.33;;
315;SDS011;14128;48.686;9.738;2022-11-18T05:51:58;2.23;;;2.03;;
315;SDS011;14128;48.686;9.738;2022-11-18T05:54:26;6.30;;;2.93;;
315;SDS011;14128;48.686;9.738;2022-11-18T05:56:53;2.73;;;1.20;;
315;SDS011;14128;48.686;9.738;2022-11-18T05:59:20;3.33;;;1.00;;
315;SDS011;14128;48.686;9.738;2022-11-18T06:01:48;1.33;;;1.00;;
315;SDS011;14128;48.686;9.738;2022-11-18T06:04:19;1.77;;;1.00;;
315;SDS011;14128;48.686;9.738;2022-11-18T06:06:49;10.33;;;2.13;;
315;SDS011;14128;48.686;9.738;2022-11-18T06:09:20;2.40;;;1.70;;
315;SDS011;14128;48.686;9.738;2022-11-18T06:11:51;2.80;;;0.80;;
315;SDS011;14128;48.686;9.738;2022-11-18T06:14:22;1.30;;;1.10;;
315;SDS011;14128;48.686;9.738;2022-11-18T06:16:54;1.40;;;1.30;;
315;SDS011;14128;48.686;9.738;2022-11-18T06:19:25;1.73;;;1.53;;
315;SDS011;14128;48.686;9.738;2022-11-18T06:21:52;1.43;;;1.03;;
315;SDS011;14128;48.686;9.738;2022-11-18T06:24:19;1.53;;;1.27;;
315;SDS011;14128;48.686;9.738;2022-11-18T06:26:46;2.60;;;1.80;;
315;SDS011;14128;48.686;9.738;2022-11-18T06:29:15;2.20;;;0.77;;
315;SDS011;14128;48.686;9.738;2022-11-18T06:31:45;5.13;;;1.03;;
315;SDS011;14128;48.686;9.738;2022-11-18T06:34:11;0.60;;;0.57;;
315;SDS011;14128;48.686;9.738;2022-11-18T06:36:38;0.30;;;0.20;;
315;SDS011;14128;48.686;9.738;2022-11-18T06:39:05;0.30;;;0.20;;
315;SDS011;14128;48.686;9.738;2022-11-18T06:41:32;0.30;;;0.20;;
315;SDS011;14128;48.686;9.738;2022-11-18T06:43:59;0.30;;;0.20;;
315;SDS011;14128;48.686;9.738;2022-11-18T06:46:28;0.30;;;0.20;;
315;SDS011;14128;48.686;9.738;2022-11-18T06:49:12;0.30;;;0.20;;
315;SDS011;14128;48.686;9.738;2022-11-18T06:51:39;0.30;;;0.20;;
315;SDS011;14128;48.686;9.738;2022-11-18T06:54:06;0.30;;;0.20;;
315;SDS011;14128;48.686;9.738;2022-11-18T06:56:33;0.30;;;0.20;;
315;SDS011;14128;48.686;9.738;2022-11-18T06:59:00;0.30;;;0.20;;
315;SDS011;14128;48.686;9.738;2022-11-18T07:01:29;0.30;;;0.20;;
315;SDS011;14128;48.686;9.738;2022-11-18T07:03:57;0.30;;;0.20;;
315;SDS011;14128;48.686;9.738;2022-11-18T07:06:25;0.30;;;0.20;;
315;SDS011;14128;48.686;9.738;2022-11-18T07:08:53;0.30;;;0.20;;
315;SDS011;14128;48.686;9.738;2022-11-18T07:11:21;0.30;;;0.20;;
315;SDS011;14128;48.686;9.738;2022-11-18T07:13:49;2.37;;;1.50;;
315;SDS011;14128;48.686;9.738;2022-11-18T07:16:17;1.90;;;1.57;;
315;SDS011;14128;48.686;9.738;2022-11-18T07:18:47;3.60;;;2.27;;
315;SDS011;14128;48.686;9.738;2022-11-18T07:21:15;3.17;;;1.70;;
315;SDS011;14128;48.686;9.738;2022-11-18T07:23:44;9.13;;;1.90;;
315;SDS011;14128;48.686;9.738;2022-11-18T07:26:11;4.83;;;2.07;;
315;SDS011;14128;48.686;9.738;2022-11-18T07:28:38;2.73;;;2.00;;
315;SDS011;14128;48.686;9.738;2022-11-18T07:31:06;3.13;;;2.43;;
315;SDS011;14128;48.686;9.738;2022-11-18T07:33:34;7.27;;;2.53;;
315;SDS011;14128;48.686;9.738;2022-11-18T07:36:04;2.20;;;1.77;;
315;SDS011;14128;48.686;9.738;2022-11-18T07:38:33;2.50;;;2.07;;
315;SDS011;14128;48.686;9.738;2022-11-18T07:41:03;3.20;;;2.60;;
315;SDS011;14128;48.686;9.738;2022-11-18T07:43:31;4.73;;;3.10;;
315;SDS011;14128;48.686;9.738;2022-11-18T07:45:58;6.37;;;3.40;;
315;SDS011;14128;48.686;9.738;2022-11-18T07:48:34;4.50;;;4.20;;
315;SDS011;14128;48.686;9.738;2022-11-18T07:51:01;6.30;;;5.40;;
315;SDS011;14128;48.686;9.738;2022-11-18T07:53:30;7.47;;;4.97;;
315;SDS011;14128;48.686;9.738;2022-11-18T07:55:57;7.30;;;3.90;;
315;SDS011;14128;48.686;9.738;2022-11-18T07:58:24;3.63;;;3.23;;
315;SDS011;14128;48.686;9.738;2022-11-18T08:00:51;3.63;;;3.50;;
315;SDS011;14128;48.686;9.738;2022-11-18T08:03:18;4.63;;;4.10;;
315;SDS011;14128;48.686;9.738;2022-11-18T08:05:45;3.83;;;3.63;;
315;SDS011;14128;48.686;9.738;2022-11-18T08:08:11;3.70;;;3.30;;
315;SDS011;14128;48.686;9.738;2022-11-18T08:10:40;6.50;;;3.80;;
315;SDS011;14128;48.686;9.738;2022-11-18T08:13:06;7.53;;;3.63;;
315;SDS011;14128;48.686;9.738;2022-11-18T08:15:33;4.63;;;2.50;;
315;SDS011;14128;48.686;9.738;2022-11-18T08:18:00;1.10;;;0.53;;
315;SDS011;14128;48.686;9.738;2022-11-18T08:20:27;2.67;;;0.77;;
315;SDS011;14128;48.686;9.738;2022-11-18T08:22:54;1.43;;;0.80;;
315;SDS011;14128;48.686;9.738;2022-11-18T08:25:21;0.60;;;0.60;;
315;SDS011;14128;48.686;9.738;2022-11-18T08:27:49;1.57;;;0.70;;
315;SDS011;14128;48.686;9.738;2022-11-18T08:30:16;1.10;;;0.50;;
315;SDS011;14128;48.686;9.738;2022-11-18T08:32:43;0.87;;;0.73;;
315;SDS011;14128;48.686;9.738;2022-11-18T08:35:10;0.50;;;0.33;;
315;SDS011;14128;48.686;9.738;2022-11-18T08:37:37;2.37;;;0.73;;
315;SDS011;14128;48.686;9.738;2022-11-18T08:40:04;1.23;;;0.60;;
315;SDS011;14128;48.686;9.738;2022-11-18T08:42:32;1.03;;;0.80;;
315;SDS011;14128;48.686;9.738;2022-11-18T08:45:00;0.77;;;0.60;;
315;SDS011;14128;48.686;9.738;2022-11-18T08:47:28;0.50;;;0.43;;
315;SDS011;14128;48.686;9.738;2022-11-18T08:49:55;0.90;;;0.80;;
315;SDS011;14128;48.686;9.738;2022-11-18T08:52:21;0.70;;;0.40;;
315;SDS011;14128;48.686;9.738;2022-11-18T08:54:48;0.90;;;0.70;;
315;SDS011;14128;48.686;9.738;2022-11-18T08:57:15;0.97;;;0.70;;
315;SDS011;14128;48.686;9.738;2022-11-18T08:59:42;2.40;;;0.80;;
315;SDS011;14128;48.686;9.738;2022-11-18T09:02:13;2.10;;;1.70;;
315;SDS011;14128;48.686;9.738;2022-11-18T09:04:40;1.70;;;0.63;;
315;SDS011;14128;48.686;9.738;2022-11-18T09:07:07;2.50;;;0.70;;
315;SDS011;14128;48.686;9.738;2022-11-18T09:09:34;0.67;;;0.50;;
315;SDS011;14128;48.686;9.738;2022-11-18T09:12:01;2.63;;;1.50;;
315;SDS011;14128;48.686;9.738;2022-11-18T09:14:28;2.37;;;2.17;;
315;SDS011;14128;48.686;9.738;2022-11-18T09:16:55;5.13;;;2.60;;
315;SDS011;14128;48.686;9.738;2022-11-18T09:19:23;9.87;;;3.07;;
315;SDS011;14128;48.686;9.738;2022-11-18T09:21:50;3.53;;;2.60;;
315;SDS011;14128;48.686;9.738;2022-11-18T09:24:17;5.70;;;3.20;;
315;SDS011;14128;48.686;9.738;2022-11-18T09:26:44;4.10;;;3.80;;
315;SDS011;14128;48.686;9.738;2022-11-18T09:29:12;5.70;;;4.50;;
315;SDS011;14128;48.686;9.738;2022-11-18T09:31:38;4.40;;;4.10;;
315;SDS011;14128;48.686;9.738;2022-11-18T09:34:05;5.57;;;3.33;;
315;SDS011;14128;48.686;9.738;2022-11-18T09:36:35;8.00;;;5.47;;
315;SDS011;14128;48.686;9.738;2022-11-18T09:39:03;5.27;;;3.60;;
315;SDS011;14128;48.686;9.738;2022-11-18T09:41:37;2.67;;;2.47;;
315;SDS011;14128;48.686;9.738;2022-11-18T09:44:12;4.00;;;2.40;;
315;SDS011;14128;48.686;9.738;2022-11-18T09:46:52;5.27;;;2.33;;
315;SDS011;14128;48.686;9.738;2022-11-18T09:49:29;2.50;;;2.23;;
315;SDS011;14128;48.686;9.738;2022-11-18T09:52:02;4.27;;;1.80;;
315;SDS011;14128;48.686;9.738;2022-11-18T09:54:33;2.43;;;1.73;;
315;SDS011;14128;48.686;9.738;2022-11-18T09:57:01;3.97;;;2.50;;
315;SDS011;14128;48.686;9.738;2022-11-18T09:59:35;2.03;;;1.93;;
315;SDS011;14128;48.686;9.738;2022-11-18T10:02:03;9.40;;;2.77;;
315;SDS011;14128;48.686;9.738;2022-11-18T10:04:47;1.97;;;1.70;;
315;SDS011;14128;48.686;9.738;2022-11-18T10:07:17;3.80;;;3.60;;
315;SDS011;14128;48.686;9.738;2022-11-18T10:09:51;3.13;;;2.93;;
315;SDS011;14128;48.686;9.738;2022-11-18T10:12:22;2.50;;;1.93;;
315;SDS011;14128;48.686;9.738;2022-11-18T10:14:56;3.90;;;2.50;;
315;SDS011;14128;48.686;9.738;2022-11-18T10:17:35;5.40;;;3.50;;
315;SDS011;14128;48.686;9.738;2022-11-18T10:20:17;3.70;;;3.33;;
315;SDS011;14128;48.686;9.738;2022-11-18T10:22:51;4.33;;;3.43;;
315;SDS011;14128;48.686;9.738;2022-11-18T10:25:22;6.20;;;3.03;;
315;SDS011;14128;48.686;9.738;2022-11-18T10:27:49;3.60;;;2.50;;
315;SDS011;14128;48.686;9.738;2022-11-18T10:30:17;3.37;;;2.27;;
315;SDS011;14128;48.686;9.738;2022-11-18T10:32:52;5.50;;;5.23;;
315;SDS011;14128;48.686;9.738;2022-11-18T10:35:23;2.90;;;2.70;;
315;SDS011;14128;48.686;9.738;2022-11-18T10:38:00;1.87;;;1.77;;
315;SDS011;14128;48.686;9.738;2022-11-18T10:40:29;4.23;;;3.97;;
315;SDS011;14128;48.686;9.738;2022-11-18T10:42:57;2.27;;;1.73;;
315;SDS011;14128;48.686;9.738;2022-11-18T10:45:25;4.13;;;2.67;;
315;SDS011;14128;48.686;9.738;2022-11-18T10:47:57;2.63;;;2.43;;
315;SDS011;14128;48.686;9.738;2022-11-18T10:50:33;5.50;;;4.30;;
315;SDS011;14128;48.686;9.738;2022-11-18T10:53:04;4.93;;;3.50;;
315;SDS011;14128;48.686;9.738;2022-11-18T10:55:32;9.90;;;4.83;;
315;SDS011;14128;48.686;9.738;2022-11-18T10:58:00;3.67;;;2.73;;
315;SDS011;14128;48.686;9.738;2022-11-18T11:00:42;3.80;;;2.33;;
315;SDS011;14128;48.686;9.738;2022-11-18T11:03:19;3.40;;;2.03;;
315;SDS011;14128;48.686;9.738;2022-11-18T11:08:49;2.50;;;2.23;;
315;SDS011;14128;48.686;9.738;2022-11-18T11:11:24;2.57;;;1.87;;
315;SDS011;14128;48.686;9.738;2022-11-18T11:14:06;2.50;;;1.33;;
315;SDS011;14128;48.686;9.738;2022-11-18T11:16:42;2.80;;;2.10;;
315;SDS011;14128;48.686;9.738;2022-11-18T11:19:15;15.63;;;5.23;;
315;SDS011;14128;48.686;9.738;2022-11-18T11:21:46;3.37;;;2.03;;
315;SDS011;14128;48.686;9.738;2022-11-18T11:24:15;2.23;;;1.60;;
315;SDS011;14128;48.686;9.738;2022-11-18T11:26:51;2.40;;;2.23;;
315;SDS011;14128;48.686;9.738;2022-11-18T11:29:27;2.33;;;1.93;;
315;SDS011;14128;48.686;9.738;2022-11-18T11:32:14;4.47;;;4.00;;
315;SDS011;14128;48.686;9.738;2022-11-18T11:34:47;4.90;;;3.93;;
315;SDS011;14128;48.686;9.738;2022-11-18T11:37:23;5.30;;;4.20;;
315;SDS011;14128;48.686;9.738;2022-11-18T11:40:07;5.37;;;3.60;;
315;SDS011;14128;48.686;9.738;2022-11-18T11:42:46;5.00;;;4.10;;
315;SDS011;14128;48.686;9.738;2022-11-18T11:45:24;4.67;;;3.77;;
315;SDS011;14128;48.686;9.738;2022-11-18T11:48:05;4.17;;;3.20;;
315;SDS011;14128;48.686;9.738;2022-11-18T11:50:41;3.93;;;3.73;;
315;SDS011;14128;48.686;9.738;2022-11-18T11:53:23;7.50;;;5.60;;
315;SDS011;14128;48.686;9.738;2022-11-18T11:56:11;5.77;;;5.47;;
315;SDS011;14128;48.686;9.738;2022-11-18T11:58:52;9.27;;;5.33;;
315;SDS011;14128;48.686;9.738;2022-11-18T12:01:30;5.63;;;4.77;;
315;SDS011;14128;48.686;9.738;2022-11-18T12:04:07;7.10;;;5.83;;
315;SDS011;14128;48.686;9.738;2022-11-18T12:06:44;5.30;;;4.73;;
315;SDS011;14128;48.686;9.738;2022-11-18T12:09:14;6.83;;;5.67;;
315;SDS011;14128;48.686;9.738;2022-11-18T12:11:48;7.37;;;5.47;;
315;SDS011;14128;48.686;9.738;2022-11-18T12:14:24;4.63;;;3.57;;
315;SDS011;14128;48.686;9.738;2022-11-18T12:16:59;4.53;;;3.00;;
315;SDS011;14128;48.686;9.738;2022-11-18T12:19:31;2.70;;;2.30;;
315;SDS011;14128;48.686;9.738;2022-11-18T12:22:04;4.23;;;2.33;;
315;SDS011;14128;48.686;9.738;2022-11-18T12:24:37;3.50;;;2.40;;
315;SDS011;14128;48.686;9.738;2022-11-18T12:27:09;6.33;;;3.50;;
315;SDS011;14128;48.686;9.738;2022-11-18T12:32:24;3.40;;;3.00;;
315;SDS011;14128;48.686;9.738;2022-11-18T12:34:56;6.57;;;4.87;;
315;SDS011;14128;48.686;9.738;2022-11-18T12:37:39;7.73;;;6.40;;
315;SDS011;14128;48.686;9.738;2022-11-18T12:40:32;5.80;;;4.27;;
315;SDS011;14128;48.686;9.738;2022-11-18T12:43:06;7.63;;;5.10;;
315;SDS011;14128;48.686;9.738;2022-11-18T12:46:09;5.77;;;4.80;;
315;SDS011;14128;48.686;9.738;2022-11-18T12:48:56;9.90;;;7.20;;
315;SDS011;14128;48.686;9.738;2022-11-18T12:54:19;5.43;;;4.50;;
315;SDS011;14128;48.686;9.738;2022-11-18T12:56:52;7.27;;;5.23;;
315;SDS011;14128;48.686;9.738;2022-11-18T12:59:28;6.83;;;5.60;;
315;SDS011;14128;48.686;9.738;2022-11-18T13:02:19;8.67;;;5.00;;
315;SDS011;14128;48.686;9.738;2022-11-18T13:05:07;4.30;;;3.30;;
315;SDS011;14128;48.686;9.738;2022-11-18T13:07:38;9.90;;;9.23;;
315;SDS011;14128;48.686;9.738;2022-11-18T13:10:28;7.30;;;4.70;;
315;SDS011;14128;48.686;9.738;2022-11-18T13:12:57;7.23;;;3.97;;
315;SDS011;14128;48.686;9.738;2022-11-18T13:15:26;5.27;;;4.10;;
315;SDS011;14128;48.686;9.738;2022-11-18T13:18:11;3.67;;;3.37;;
315;SDS011;14128;48.686;9.738;2022-11-18T13:20:40;5.40;;;4.27;;
315;SDS011;14128;48.686;9.738;2022-11-18T13:26:14;4.20;;;3.83;;
315;SDS011;14128;48.686;9.738;2022-11-18T13:28:47;4.70;;;3.30;;
315;SDS011;14128;48.686;9.738;2022-11-18T13:31:41;6.50;;;3.17;;
315;SDS011;14128;48.686;9.738;2022-11-18T13:34:16;3.43;;;2.27;;
315;SDS011;14128;48.686;9.738;2022-11-18T13:36:45;2.70;;;1.90;;
315;SDS011;14128;48.686;9.738;2022-11-18T13:39:16;3.63;;;2.43;;
315;SDS011;14128;48.686;9.738;2022-11-18T13:41:47;1.67;;;1.63;;
315;SDS011;14128;48.686;9.738;2022-11-18T13:44:25;1.93;;;1.83;;
315;SDS011;14128;48.686;9.738;2022-11-18T13:46:57;3.43;;;2.00;;
315;SDS011;14128;48.686;9.738;2022-11-18T13:49:34;3.70;;;2.10;;
315;SDS011;14128;48.686;9.738;2022-11-18T13:52:08;2.80;;;1.87;;
315;SDS011;14128;48.686;9.738;2022-11-18T13:54:38;2.70;;;1.40;;
315;SDS011;14128;48.686;9.738;2022-11-18T13:57:11;4.93;;;2.30;;
315;SDS011;14128;48.686;9.738;2022-11-18T13:59:42;4.00;;;2.27;;
315;SDS011;14128;48.686;9.738;2022-11-18T14:02:11;3.10;;;2.57;;
315;SDS011;14128;48.686;9.738;2022-11-18T14:04:45;2.47;;;2.30;;
315;SDS011;14128;48.686;9.738;2022-11-18T14:07:20;3.43;;;2.33;;
315;SDS011;14128;48.686;9.738;2022-11-18T14:09:51;4.30;;;2.57;;
315;SDS011;14128;48.686;9.738;2022-11-18T14:12:21;2.83;;;1.70;;
315;SDS011;14128;48.686;9.738;2022-11-18T14:14:49;2.60;;;2.20;;
315;SDS011;14128;48.686;9.738;2022-11-18T14:17:18;3.70;;;2.90;;
315;SDS011;14128;48.686;9.738;2022-11-18T14:19:46;7.50;;;4.63;;
315;SDS011;14128;48.686;9.738;2022-11-18T14:22:15;5.60;;;3.53;;
315;SDS011;14128;48.686;9.738;2022-11-18T14:24:43;4.17;;;3.37;;
315;SDS011;14128;48.686;9.738;2022-11-18T14:27:36;8.57;;;3.97;;
315;SDS011;14128;48.686;9.738;2022-11-18T14:33:06;6.93;;;6.37;;
315;SDS011;14128;48.686;9.738;2022-11-18T14:35:35;8.60;;;4.53;;
315;SDS011;14128;48.686;9.738;2022-11-18T14:38:07;7.30;;;4.43;;
315;SDS011;14128;48.686;9.738;2022-11-18T14:40:38;6.77;;;5.00;;
315;SDS011;14128;48.686;9.738;2022-11-18T14:43:06;5.03;;;3.87;;
315;SDS011;14128;48.686;9.738;2022-11-18T14:45:33;6.50;;;5.13;;
315;SDS011;14128;48.686;9.738;2022-11-18T14:47:59;6.13;;;5.77;;
315;SDS011;14128;48.686;9.738;2022-11-18T14:50:28;4.67;;;4.40;;
315;SDS011;14128;48.686;9.738;2022-11-18T14:52:54;8.70;;;4.43;;
315;SDS011;14128;48.686;9.738;2022-11-18T14:55:21;6.33;;;5.00;;
315;SDS011;14128;48.686;9.738;2022-11-18T14:57:48;6.60;;;5.40;;
315;SDS011;14128;48.686;9.738;2022-11-18T15:00:15;12.13;;;11.00;;
315;SDS011;14128;48.686;9.738;2022-11-18T15:02:43;9.57;;;7.10;;
315;SDS011;14128;48.686;9.738;2022-11-18T15:05:10;5.30;;;5.00;;
315;SDS011;14128;48.686;9.738;2022-11-18T15:07:38;8.60;;;4.43;;
315;SDS011;14128;48.686;9.738;2022-11-18T15:10:05;9.13;;;6.10;;
315;SDS011;14128;48.686;9.738;2022-11-18T15:12:32;7.97;;;7.60;;
315;SDS011;14128;48.686;9.738;2022-11-18T15:14:59;12.00;;;7.90;;
315;SDS011;14128;48.686;9.738;2022-11-18T15:17:26;7.60;;;6.40;;
315;SDS011;14128;48.686;9.738;2022-11-18T15:19:53;8.00;;;4.60;;
315;SDS011;14128;48.686;9.738;2022-11-18T15:22:20;7.10;;;5.67;;
315;SDS011;14128;48.686;9.738;2022-11-18T15:24:48;19.70;;;12.40;;
315;SDS011;14128;48.686;9.738;2022-11-18T15:27:15;8.63;;;5.73;;
315;SDS011;14128;48.686;9.738;2022-11-18T15:29:42;9.73;;;6.27;;
315;SDS011;14128;48.686;9.738;2022-11-18T15:32:09;5.90;;;5.00;;
315;SDS011;14128;48.686;9.738;2022-11-18T15:34:35;5.33;;;4.83;;
315;SDS011;14128;48.686;9.738;2022-11-18T15:37:02;13.17;;;9.80;;
315;SDS011;14128;48.686;9.738;2022-11-18T15:39:29;7.20;;;4.60;;
315;SDS011;14128;48.686;9.738;2022-11-18T15:41:57;9.20;;;5.33;;
315;SDS011;14128;48.686;9.738;2022-11-18T15:44:24;4.40;;;4.10;;
315;SDS011;14128;48.686;9.738;2022-11-18T15:46:51;8.37;;;5.80;;
315;SDS011;14128;48.686;9.738;2022-11-18T15:49:18;5.73;;;4.47;;
315;SDS011;14128;48.686;9.738;2022-11-18T15:51:44;9.07;;;6.50;;
315;SDS011;14128;48.686;9.738;2022-11-18T15:54:11;8.73;;;5.50;;
315;SDS011;14128;48.686;9.738;2022-11-18T15:56:38;6.10;;;4.43;;
315;SDS011;14128;48.686;9.738;2022-11-18T15:59:08;6.30;;;4.50;;